createdAt,value
2022-08-17T00:00:10.989Z,24.09
2022-08-17T00:03:08.202Z,24.15
2022-08-17T00:05:38.760Z,24.20
2022-08-17T00:08:06.338Z,24.22
2022-08-17T00:10:34.662Z,24.27
2022-08-17T00:13:06.624Z,24.27
2022-08-17T00:15:34.333Z,24.33
2022-08-17T00:18:03.307Z,24.33
2022-08-17T00:20:50.877Z,24.40
2022-08-17T00:23:18.835Z,24.40
2022-08-17T00:25:47.934Z,24.37
2022-08-17T00:28:16.860Z,24.27
2022-08-17T00:30:51.255Z,24.21
2022-08-17T00:33:24.141Z,24.15
2022-08-17T00:35:52.651Z,24.19
2022-08-17T00:38:20.361Z,24.20
2022-08-17T00:40:50.278Z,24.30
2022-08-17T00:43:22.616Z,24.39
2022-08-17T00:45:50.627Z,24.53
2022-08-17T00:48:28.994Z,24.54
2022-08-17T00:51:06.373Z,24.66
2022-08-17T00:53:35.898Z,24.66
2022-08-17T00:56:07.089Z,24.70
2022-08-17T00:58:36.194Z,24.65
2022-08-17T01:01:06.193Z,24.69
2022-08-17T01:03:35.711Z,24.72
2022-08-17T01:06:07.142Z,24.75
2022-08-17T01:08:36.621Z,24.81
2022-08-17T01:11:05.313Z,24.79
2022-08-17T01:13:40.841Z,24.71
2022-08-17T01:16:15.848Z,24.74
2022-08-17T01:18:43.749Z,24.78
2022-08-17T01:21:21.101Z,24.62
2022-08-17T01:23:50.403Z,24.66
2022-08-17T01:26:19.201Z,24.62
2022-08-17T01:28:54.416Z,24.57
2022-08-17T01:31:23.531Z,24.56
2022-08-17T01:33:51.194Z,24.51
2022-08-17T01:36:19.030Z,24.40
2022-08-17T01:38:46.697Z,24.34
2022-08-17T01:41:17.732Z,24.34
2022-08-17T01:43:50.195Z,24.31
2022-08-17T01:46:26.861Z,24.23
2022-08-17T01:48:55.086Z,24.23
2022-08-17T01:51:23.278Z,24.28
2022-08-17T01:53:53.937Z,24.30
2022-08-17T01:56:25.312Z,24.31
2022-08-17T01:58:53.515Z,24.29
2022-08-17T02:01:26.373Z,24.27
2022-08-17T02:04:00.652Z,24.35
2022-08-17T02:06:30.660Z,24.37
2022-08-17T02:09:02.893Z,24.40
2022-08-17T02:11:35.043Z,24.42
2022-08-17T02:14:04.111Z,24.43
2022-08-17T02:16:36.894Z,24.35
2022-08-17T02:19:05.982Z,24.28
2022-08-17T02:21:33.978Z,24.32
2022-08-17T02:24:01.850Z,24.34
2022-08-17T02:26:29.486Z,24.35
2022-08-17T02:28:58.363Z,24.33
2022-08-17T02:31:25.952Z,24.28
2022-08-17T02:34:00.341Z,24.25
2022-08-17T02:36:32.184Z,24.25
2022-08-17T02:39:01.430Z,24.30
2022-08-17T02:41:29.108Z,24.28
2022-08-17T02:43:58.530Z,24.32
2022-08-17T02:46:26.176Z,24.29
2022-08-17T02:48:53.758Z,24.22
2022-08-17T02:51:21.323Z,24.22
2022-08-17T02:53:48.974Z,24.15
2022-08-17T02:56:16.912Z,24.20
2022-08-17T02:58:44.479Z,24.12
2022-08-17T03:01:13.551Z,24.12
2022-08-17T03:03:41.576Z,24.16
2022-08-17T03:06:10.038Z,24.18
2022-08-17T03:08:38.357Z,24.17
2022-08-17T03:11:06.241Z,24.18
2022-08-17T03:13:34.018Z,24.18
2022-08-17T03:16:01.649Z,24.23
2022-08-17T03:18:30.561Z,24.27
2022-08-17T03:21:01.679Z,24.29
2022-08-17T03:23:30.360Z,24.26
2022-08-17T03:25:58.617Z,24.23
2022-08-17T03:28:28.125Z,24.19
2022-08-17T03:30:55.867Z,24.27
2022-08-17T03:33:23.497Z,24.14
2022-08-17T03:35:53.028Z,24.15
2022-08-17T03:38:20.622Z,24.25
2022-08-17T03:40:57.975Z,24.23
2022-08-17T03:43:29.639Z,24.22
2022-08-17T03:46:27.624Z,24.22
2022-08-17T03:49:14.941Z,24.19
2022-08-17T03:52:01.645Z,24.22
2022-08-17T03:54:46.655Z,24.11
2022-08-17T03:57:14.856Z,24.13
2022-08-17T03:59:42.885Z,24.10
2022-08-17T04:02:19.683Z,24.06
2022-08-17T04:04:50.515Z,23.95
2022-08-17T04:07:19.608Z,23.96
2022-08-17T04:09:47.614Z,23.95
2022-08-17T04:12:16.346Z,23.98
2022-08-17T04:14:52.085Z,24.07
2022-08-17T04:17:23.445Z,24.02
2022-08-17T04:19:51.008Z,24.01
2022-08-17T04:22:31.431Z,24.02
2022-08-17T04:25:05.652Z,24.01
2022-08-17T04:27:33.373Z,24.07
2022-08-17T04:30:01.070Z,24.02
2022-08-17T04:33:03.401Z,24.03
2022-08-17T04:35:19.897Z,23.94
2022-08-17T04:37:48.908Z,23.97
2022-08-17T04:40:34.243Z,23.91
2022-08-17T04:43:03.527Z,23.97
2022-08-17T04:45:32.184Z,24.00
2022-08-17T04:48:00.303Z,24.02
2022-08-17T04:50:27.934Z,24.06
2022-08-17T04:52:57.290Z,24.07
2022-08-17T04:55:25.030Z,24.04
2022-08-17T04:57:52.544Z,24.10
2022-08-17T05:00:20.299Z,24.12
2022-08-17T05:02:49.814Z,24.14
2022-08-17T05:05:19.974Z,24.18
2022-08-17T05:07:48.745Z,24.22
2022-08-17T05:10:17.920Z,24.25
2022-08-17T05:12:45.473Z,24.29
2022-08-17T05:15:15.961Z,24.32
2022-08-17T05:17:43.728Z,24.42
2022-08-17T05:20:12.286Z,24.37
2022-08-17T05:22:50.054Z,24.41
2022-08-17T05:25:24.952Z,24.39
2022-08-17T05:27:54.106Z,24.40
2022-08-17T05:30:22.895Z,24.40
2022-08-17T05:32:55.468Z,24.42
2022-08-17T05:35:23.957Z,24.45
2022-08-17T05:37:51.767Z,24.48
2022-08-17T05:40:21.374Z,24.51
2022-08-17T05:42:49.806Z,24.60
2022-08-17T05:45:54.856Z,24.68
2022-08-17T05:48:10.166Z,24.66
2022-08-17T05:50:49.317Z,24.54
2022-08-17T05:53:25.247Z,24.51
2022-08-17T05:56:05.470Z,24.55
2022-08-17T05:58:43.052Z,24.66
2022-08-17T06:01:20.323Z,24.68
2022-08-17T06:03:56.199Z,24.74
2022-08-17T06:06:37.779Z,24.78
2022-08-17T06:09:27.613Z,24.74
2022-08-17T06:12:12.865Z,24.84
2022-08-17T06:14:58.829Z,24.88
2022-08-17T06:17:28.023Z,24.88
2022-08-17T06:19:59.619Z,24.90
2022-08-17T06:22:32.886Z,24.92
2022-08-17T06:25:03.395Z,24.96
2022-08-17T06:27:38.477Z,24.89
2022-08-17T06:30:10.048Z,24.91
2022-08-17T06:32:39.771Z,24.98
2022-08-17T06:35:10.236Z,24.93
2022-08-17T06:37:55.158Z,24.97
2022-08-17T06:40:36.677Z,24.97
2022-08-17T06:43:20.106Z,25.04
2022-08-17T06:45:54.157Z,25.11
2022-08-17T06:48:27.617Z,25.17
2022-08-17T06:51:01.758Z,25.27
2022-08-17T06:53:35.394Z,25.39
2022-08-17T06:56:08.670Z,25.50
2022-08-17T06:58:40.802Z,25.59
2022-08-17T07:01:11.402Z,25.47
2022-08-17T07:03:45.513Z,25.44
2022-08-17T07:06:16.826Z,25.41
2022-08-17T07:08:56.458Z,25.46
2022-08-17T07:11:31.330Z,25.57
2022-08-17T07:14:17.301Z,25.64
2022-08-17T07:16:50.309Z,25.73
2022-08-17T07:19:22.435Z,25.85
2022-08-17T07:21:58.047Z,25.98
2022-08-17T07:24:37.185Z,26.02
2022-08-17T07:27:08.806Z,26.05
2022-08-17T07:29:42.602Z,26.18
2022-08-17T07:32:12.254Z,26.12
2022-08-17T07:35:03.089Z,26.14
2022-08-17T07:37:33.219Z,26.24
2022-08-17T07:40:16.494Z,26.34
2022-08-17T07:43:00.953Z,26.48
2022-08-17T07:45:48.432Z,26.57
2022-08-17T07:48:21.034Z,26.66
2022-08-17T07:50:50.710Z,26.74
2022-08-17T07:53:23.054Z,26.84
2022-08-17T07:55:51.609Z,26.92
2022-08-17T07:58:21.350Z,26.87
2022-08-17T08:01:05.362Z,26.91
2022-08-17T08:03:34.177Z,26.92
2022-08-17T08:06:03.579Z,26.75
2022-08-17T08:08:38.276Z,26.71
2022-08-17T08:11:10.217Z,26.66
2022-08-17T08:13:44.949Z,26.69
2022-08-17T08:16:25.242Z,26.76
2022-08-17T08:18:57.266Z,26.83
2022-08-17T08:21:32.894Z,26.90
2022-08-17T08:24:09.697Z,26.96
2022-08-17T08:26:43.350Z,27.03
2022-08-17T08:29:22.402Z,27.14
2022-08-17T08:32:03.578Z,27.40
2022-08-17T08:34:58.843Z,27.54
2022-08-17T08:37:40.510Z,27.60
2022-08-17T08:40:21.224Z,27.73
2022-08-17T08:42:57.908Z,27.80
2022-08-17T08:45:30.405Z,27.92
2022-08-17T08:48:23.050Z,27.89
2022-08-17T08:51:10.893Z,27.91
2022-08-17T08:53:48.962Z,28.09
2022-08-17T08:56:25.956Z,28.12
2022-08-17T08:59:03.010Z,28.23
2022-08-17T09:01:38.724Z,28.34
2022-08-17T09:04:40.693Z,28.47
2022-08-17T09:07:33.559Z,28.44
2022-08-17T09:10:10.479Z,28.38
2022-08-17T09:12:47.537Z,28.36
2022-08-17T09:15:19.008Z,28.38
2022-08-17T09:18:08.873Z,28.27
2022-08-17T09:20:50.186Z,28.13
2022-08-17T09:23:30.281Z,28.09
2022-08-17T09:26:03.946Z,28.08
2022-08-17T09:28:36.344Z,27.93
2022-08-17T09:31:09.266Z,27.83
2022-08-17T09:33:43.449Z,27.77
2022-08-17T09:36:21.668Z,27.69
2022-08-17T09:38:58.168Z,27.65
2022-08-17T09:41:32.786Z,27.60
2022-08-17T09:44:08.502Z,27.62
2022-08-17T09:46:54.573Z,27.62
2022-08-17T09:49:30.717Z,27.57
2022-08-17T09:52:04.182Z,27.53
2022-08-17T09:54:41.305Z,27.57
2022-08-17T09:57:30.200Z,27.59
2022-08-17T10:00:16.967Z,27.60
2022-08-17T10:03:10.000Z,27.60
2022-08-17T10:05:45.317Z,27.58
2022-08-17T10:08:25.573Z,27.55
2022-08-17T10:11:05.430Z,27.50
2022-08-17T10:13:39.119Z,27.50
2022-08-17T10:16:15.316Z,27.51
2022-08-17T10:18:51.630Z,27.53
2022-08-17T10:21:37.937Z,27.44
2022-08-17T10:24:34.380Z,27.26
2022-08-17T10:27:09.586Z,27.10
2022-08-17T10:29:48.602Z,26.89
2022-08-17T10:32:32.630Z,26.81
2022-08-17T10:35:29.703Z,26.66
2022-08-17T10:38:32.525Z,26.66
2022-08-17T10:41:12.868Z,26.65
2022-08-17T10:44:35.397Z,26.66
2022-08-17T10:46:57.247Z,26.73
2022-08-17T10:49:32.528Z,26.70
2022-08-17T10:52:02.906Z,26.76
2022-08-17T10:54:48.375Z,26.57
2022-08-17T10:57:42.688Z,26.60
2022-08-17T11:01:12.633Z,26.54
2022-08-17T11:03:53.377Z,26.44
2022-08-17T11:06:30.875Z,26.38
2022-08-17T11:09:24.639Z,26.41
2022-08-17T11:12:07.138Z,26.28
2022-08-17T11:14:49.947Z,26.17
2022-08-17T11:17:41.379Z,26.09
2022-08-17T11:20:23.143Z,25.92
2022-08-17T11:23:23.864Z,25.90
2022-08-17T11:25:54.226Z,25.88
2022-08-17T11:28:25.755Z,26.03
2022-08-17T11:30:57.509Z,26.01
2022-08-17T11:33:59.206Z,26.13
2022-08-17T11:36:37.368Z,26.17
2022-08-17T11:39:16.173Z,26.25
2022-08-17T11:41:50.898Z,26.32
2022-08-17T11:44:39.041Z,26.51
2022-08-17T11:47:33.657Z,26.47
2022-08-17T11:50:38.734Z,26.59
2022-08-17T11:53:07.913Z,26.64
2022-08-17T11:56:05.157Z,26.59
2022-08-17T11:58:39.936Z,26.49
2022-08-17T12:01:10.300Z,26.57
2022-08-17T12:03:56.001Z,26.52
2022-08-17T12:06:45.016Z,26.74
2022-08-17T12:09:17.883Z,26.98
2022-08-17T12:11:57.763Z,27.31
2022-08-17T12:15:08.146Z,27.40
2022-08-17T12:17:41.299Z,27.40
2022-08-17T12:20:16.093Z,27.49
2022-08-17T12:22:54.671Z,27.63
2022-08-17T12:25:27.156Z,27.76
2022-08-17T12:28:05.426Z,28.04
2022-08-17T12:30:35.088Z,28.26
2022-08-17T12:33:02.817Z,28.42
2022-08-17T12:35:35.054Z,28.58
2022-08-17T12:38:06.396Z,28.57
2022-08-17T12:40:55.461Z,28.37
2022-08-17T12:43:29.182Z,28.58
2022-08-17T12:46:01.008Z,28.57
2022-08-17T12:48:58.765Z,28.74
2022-08-17T12:51:29.874Z,28.76
2022-08-17T12:53:57.536Z,28.63
2022-08-17T12:56:25.446Z,28.79
2022-08-17T12:58:55.481Z,29.07
2022-08-17T13:01:25.681Z,29.54
2022-08-17T13:04:00.615Z,29.76
2022-08-17T13:06:33.074Z,29.80
2022-08-17T13:09:10.432Z,29.84
2022-08-17T13:11:47.747Z,30.15
2022-08-17T13:14:18.205Z,30.05
2022-08-17T13:16:50.963Z,30.19
2022-08-17T13:19:39.932Z,30.02
2022-08-17T13:22:12.852Z,30.01
2022-08-17T13:24:52.966Z,30.04
2022-08-17T13:27:22.624Z,29.80
2022-08-17T13:29:53.443Z,30.20
2022-08-17T13:32:24.106Z,30.22
2022-08-17T13:35:12.115Z,30.36
2022-08-17T13:37:58.583Z,30.05
2022-08-17T13:40:31.309Z,30.20
2022-08-17T13:42:59.526Z,30.32
2022-08-17T13:45:50.398Z,30.47
2022-08-17T13:48:27.522Z,30.36
2022-08-17T13:51:27.043Z,30.37
2022-08-17T13:54:00.316Z,30.48
2022-08-17T13:56:39.589Z,30.62
2022-08-17T13:59:11.266Z,30.76
2022-08-17T14:01:41.388Z,30.81
2022-08-17T14:04:12.207Z,30.62
2022-08-17T14:06:54.165Z,30.72
2022-08-17T14:09:29.779Z,30.65
2022-08-17T14:12:00.176Z,30.81
2022-08-17T14:14:29.190Z,30.74
2022-08-17T14:16:57.810Z,30.67
2022-08-17T14:19:26.900Z,30.81
2022-08-17T14:21:58.665Z,30.77
2022-08-17T14:24:30.761Z,30.88
2022-08-17T14:26:58.986Z,30.96
2022-08-17T14:29:29.197Z,30.93
2022-08-17T14:31:58.156Z,30.87
2022-08-17T14:34:26.149Z,30.83
2022-08-17T14:36:53.815Z,30.98
2022-08-17T14:39:21.863Z,30.91
2022-08-17T14:41:50.930Z,30.98
2022-08-17T14:44:18.480Z,30.99
2022-08-17T14:46:46.240Z,31.04
2022-08-17T14:49:15.533Z,31.04
2022-08-17T14:51:44.498Z,30.91
2022-08-17T14:54:32.636Z,30.95
2022-08-17T14:57:24.888Z,30.96
2022-08-17T14:59:54.895Z,31.02
2022-08-17T15:02:29.840Z,31.02
2022-08-17T15:05:00.470Z,30.82
2022-08-17T15:07:30.255Z,30.98
2022-08-17T15:09:58.703Z,30.98
2022-08-17T15:12:33.624Z,31.09
2022-08-17T15:15:01.941Z,31.04
2022-08-17T15:17:45.063Z,30.98
2022-08-17T15:20:15.312Z,30.77
2022-08-17T15:22:44.220Z,30.69
2022-08-17T15:25:12.740Z,30.68
2022-08-17T15:27:41.834Z,30.82
2022-08-17T15:30:10.906Z,30.73
2022-08-17T15:32:40.817Z,30.84
2022-08-17T15:35:11.703Z,30.90
2022-08-17T15:37:40.152Z,30.86
2022-08-17T15:40:10.114Z,30.20
2022-08-17T15:42:38.383Z,30.61
2022-08-17T15:45:09.907Z,30.68
2022-08-17T15:47:37.867Z,30.69
2022-08-17T15:50:06.415Z,30.73
2022-08-17T15:52:38.024Z,30.69
2022-08-17T15:55:07.720Z,30.72
2022-08-17T15:57:36.081Z,30.46
2022-08-17T16:00:08.701Z,30.52
2022-08-17T16:03:20.308Z,30.49
2022-08-17T16:05:27.326Z,30.45
2022-08-17T16:07:55.948Z,30.33
2022-08-17T16:10:25.187Z,30.21
2022-08-17T16:13:03.208Z,30.03
2022-08-17T16:15:32.744Z,29.81
2022-08-17T16:18:00.526Z,29.73
2022-08-17T16:20:30.548Z,29.64
2022-08-17T16:22:58.857Z,29.63
2022-08-17T16:25:47.230Z,29.40
2022-08-17T16:28:18.226Z,29.27
2022-08-17T16:30:47.137Z,29.31
2022-08-17T16:33:16.558Z,29.19
2022-08-17T16:35:44.157Z,29.11
2022-08-17T16:38:12.391Z,29.11
2022-08-17T16:40:40.434Z,29.02
2022-08-17T16:43:10.390Z,28.98
2022-08-17T16:45:40.041Z,28.84
2022-08-17T16:48:09.620Z,28.79
2022-08-17T16:50:38.460Z,28.94
2022-08-17T16:53:07.808Z,28.89
2022-08-17T16:55:36.501Z,28.81
2022-08-17T16:58:04.896Z,28.86
2022-08-17T17:00:34.222Z,28.91
2022-08-17T17:03:19.632Z,28.90
2022-08-17T17:05:58.482Z,28.84
2022-08-17T17:08:31.259Z,28.75
2022-08-17T17:11:04.841Z,28.62
2022-08-17T17:13:41.907Z,28.39
2022-08-17T17:16:19.196Z,28.43
2022-08-17T17:19:03.247Z,28.48
2022-08-17T17:21:36.729Z,28.53
2022-08-17T17:24:12.241Z,28.38
2022-08-17T17:26:53.841Z,28.40
2022-08-17T17:29:47.492Z,28.30
2022-08-17T17:32:20.817Z,28.23
2022-08-17T17:34:54.604Z,28.04
2022-08-17T17:37:29.955Z,28.03
2022-08-17T17:40:03.672Z,27.97
2022-08-17T17:42:33.005Z,27.79
2022-08-17T17:45:17.578Z,27.73
2022-08-17T17:47:46.092Z,27.74
2022-08-17T17:50:18.178Z,27.76
2022-08-17T17:52:52.594Z,27.73
2022-08-17T17:55:25.990Z,27.73
2022-08-17T17:58:03.646Z,27.70
2022-08-17T18:00:38.675Z,27.64
2022-08-17T18:03:21.766Z,27.45
2022-08-17T18:06:00.663Z,27.27
2022-08-17T18:08:47.806Z,27.17
2022-08-17T18:11:35.053Z,27.25
2022-08-17T18:14:15.240Z,27.27
2022-08-17T18:16:43.640Z,27.22
2022-08-17T18:19:14.934Z,27.19
2022-08-17T18:21:48.145Z,27.10
2022-08-17T18:24:15.789Z,27.07
2022-08-17T18:26:48.144Z,27.07
2022-08-17T18:29:31.470Z,27.06
2022-08-17T18:32:24.553Z,26.99
2022-08-17T18:34:54.112Z,26.84
2022-08-17T18:37:35.258Z,26.82
2022-08-17T18:40:26.869Z,26.71
2022-08-17T18:43:02.900Z,26.61
2022-08-17T18:45:38.369Z,26.51
2022-08-17T18:48:17.901Z,26.46
2022-08-17T18:50:45.899Z,26.34
2022-08-17T18:53:30.346Z,26.25
2022-08-17T18:56:35.913Z,26.17
2022-08-17T18:59:10.799Z,26.19
2022-08-17T19:02:05.156Z,26.16
2022-08-17T19:04:41.366Z,26.11
2022-08-17T19:07:25.433Z,25.94
2022-08-17T19:09:59.254Z,25.91
2022-08-17T19:12:32.407Z,25.91
2022-08-17T19:15:02.824Z,25.84
2022-08-17T19:17:43.682Z,25.70
2022-08-17T19:20:18.442Z,25.67
2022-08-17T19:22:55.463Z,25.68
2022-08-17T19:25:28.328Z,25.54
2022-08-17T19:28:03.515Z,25.46
2022-08-17T19:30:32.027Z,25.46
2022-08-17T19:33:01.843Z,25.43
2022-08-17T19:35:39.124Z,25.34
2022-08-17T19:38:12.925Z,25.19
2022-08-17T19:41:03.115Z,25.19
2022-08-17T19:43:47.907Z,25.18
2022-08-17T19:46:25.935Z,25.05
2022-08-17T19:49:03.253Z,24.95
2022-08-17T19:51:40.465Z,24.86
2022-08-17T19:54:15.419Z,24.85
2022-08-17T19:56:55.420Z,24.80
2022-08-17T19:59:35.952Z,24.73
2022-08-17T20:02:16.172Z,24.64
2022-08-17T20:04:48.370Z,24.69
2022-08-17T20:07:19.938Z,24.59
2022-08-17T20:09:52.938Z,24.60
2022-08-17T20:12:26.639Z,24.54
2022-08-17T20:14:57.617Z,24.48
2022-08-17T20:17:28.629Z,24.42
2022-08-17T20:20:04.508Z,24.44
2022-08-17T20:22:52.521Z,24.34
2022-08-17T20:25:29.871Z,24.28
2022-08-17T20:28:06.263Z,24.20
2022-08-17T20:30:38.351Z,24.11
2022-08-17T20:33:13.122Z,24.07
2022-08-17T20:36:01.149Z,24.02
2022-08-17T20:38:41.660Z,23.86
2022-08-17T20:41:15.211Z,23.93
2022-08-17T20:43:52.181Z,23.79
2022-08-17T20:46:34.133Z,23.71
2022-08-17T20:49:21.667Z,23.73
2022-08-17T20:52:01.744Z,23.59
2022-08-17T20:54:49.764Z,23.47
2022-08-17T20:57:49.773Z,23.52
2022-08-17T21:00:45.066Z,23.54
2022-08-17T21:03:51.903Z,23.59
2022-08-17T21:06:23.218Z,23.68
2022-08-17T21:08:58.742Z,23.72
2022-08-17T21:12:04.012Z,23.67
2022-08-17T21:14:57.981Z,23.57
2022-08-17T21:17:41.774Z,23.49
2022-08-17T21:20:26.382Z,23.56
2022-08-17T21:23:08.279Z,23.53
2022-08-17T21:25:57.016Z,23.60
2022-08-17T21:28:35.250Z,23.64
2022-08-17T21:31:11.813Z,23.60
2022-08-17T21:34:20.436Z,23.76
2022-08-17T21:36:50.158Z,23.70
2022-08-17T21:39:24.229Z,23.65
2022-08-17T21:42:00.517Z,23.66
2022-08-17T21:44:34.610Z,23.66
2022-08-17T21:47:21.696Z,23.68
2022-08-17T21:49:50.869Z,23.68
2022-08-17T21:52:21.125Z,23.64
2022-08-17T21:54:51.872Z,23.62
2022-08-17T21:57:22.628Z,23.60
2022-08-17T21:59:54.554Z,23.64
2022-08-17T22:02:24.802Z,23.64
2022-08-17T22:05:02.770Z,23.55
2022-08-17T22:07:40.682Z,23.59
2022-08-17T22:10:28.583Z,23.62
2022-08-17T22:13:03.413Z,23.59
2022-08-17T22:15:31.042Z,23.56
2022-08-17T22:20:30.945Z,23.61
2022-08-17T22:23:30.118Z,23.47
2022-08-17T22:28:40.822Z,23.47
2022-08-17T22:31:10.815Z,23.44
2022-08-17T22:33:46.717Z,23.45
2022-08-17T22:36:22.581Z,23.47
2022-08-17T22:38:51.532Z,23.37
2022-08-17T22:41:30.088Z,23.34
2022-08-17T22:43:59.299Z,23.32
2022-08-17T22:46:27.667Z,23.21
2022-08-17T22:48:59.217Z,23.07
2022-08-17T22:51:30.600Z,23.08
2022-08-17T22:54:19.162Z,23.02
2022-08-17T22:57:18.669Z,23.02
2022-08-17T22:59:50.380Z,22.73
2022-08-17T23:02:22.992Z,22.68
2022-08-17T23:04:53.026Z,22.63
2022-08-17T23:07:22.581Z,22.54
2022-08-17T23:09:50.171Z,22.38
2022-08-17T23:12:23.188Z,22.23
2022-08-17T23:14:56.898Z,22.20
2022-08-17T23:17:24.489Z,22.23
2022-08-17T23:19:52.044Z,22.22
2022-08-17T23:22:19.619Z,22.23
2022-08-17T23:24:50.472Z,22.28
2022-08-17T23:27:19.793Z,22.36
2022-08-17T23:29:48.583Z,22.41
2022-08-17T23:32:18.581Z,22.37
2022-08-17T23:34:47.688Z,22.35
2022-08-17T23:37:16.690Z,22.36
2022-08-17T23:39:45.616Z,22.31
2022-08-17T23:42:21.767Z,22.23
2022-08-17T23:44:49.729Z,22.25
2022-08-17T23:47:17.809Z,22.22
2022-08-17T23:49:45.652Z,22.11
2022-08-17T23:52:16.403Z,22.11
2022-08-17T23:54:46.365Z,22.06
2022-08-17T23:57:17.650Z,22.10
2022-08-17T23:59:45.882Z,22.15
